Disclaimer

Please do not use the information listed here in-flight or in-navigation, as they are not provided to us by the airports but are provided by volunteers, so they might be outdated.

Search


Regions


Airport information page

Radio informations:
Tower (TWR) - 118.35 MHz
Automatic Terminal Information Service (ATIS) - 316.0 MHz
Approach (APP) - 120.65 MHz

Airport informations:
Latitude: 16° 41' 59.48" N
Longitude: 098° 32' 42.20" E
Elevation: 690 feet - 210 meters
Operating hours: From sunrise to sunset (SR-SS)
Operating agency: Civil government, landing fees and diplomatic clearance may be required
Timezone: UTC+7
Fuel: N/A

Runway information:
09/27 - 4921 x 98 feet< - >1500 x 30 meters

Recent METARs:
VTPM 201100Z 24005KT 9999 FEW020TCU 29/23 Q1011 NOSIG
VTPM 201100Z 24005KT 9999 FEW020TCU 29/23 Q1011 NOSIG

Airport on the map: